Time;durP1;ratioP1;P1;durP2;ratioP2;P2;SDS_P1;SDS_P2;PMS_P1;PMS_P2;Temp;Humidity;BMP_temperature;BMP_pressure;BME280_temperature;BME280_humidity;BME280_pressure;Samples;Min_cycle;Max_cycle;Signal;HPM_P1;HPM_P2
2022/07/11 06:14:17;;;;;;;3.28;0.60;;;19.50;75.20;;;;;;5396974;23;20073;-73
2022/07/11 06:16:43;;;;;;;3.15;0.40;;;19.40;74.90;;;;;;4877365;29;20341;-74
2022/07/11 06:19:09;;;;;;;1.40;0.20;;;19.40;75.00;;;;;;4884941;29;20060;-75
2022/07/11 06:21:35;;;;;;;1.05;0.38;;;19.40;75.00;;;;;;4884110;29;20084;-75
2022/07/11 06:24:00;;;;;;;1.90;0.10;;;19.40;74.90;;;;;;4884933;29;20059;-74
2022/07/11 06:26:26;;;;;;;0.63;0.30;;;19.40;74.80;;;;;;4884337;29;20041;-74
2022/07/11 06:28:52;;;;;;;0.52;0.20;;;19.40;74.70;;;;;;4869061;29;20457;-77
2022/07/11 06:31:18;;;;;;;3.60;0.50;;;19.40;74.60;;;;;;4885078;29;20128;-75
2022/07/11 06:33:44;;;;;;;0.28;0.10;;;19.40;74.50;;;;;;4884765;29;20124;-75
2022/07/11 06:36:09;;;;;;;0.93;0.13;;;19.40;74.50;;;;;;4883466;29;20358;-76
2022/07/11 06:38:35;;;;;;;0.25;0.05;;;19.40;74.50;;;;;;4884547;29;20045;-76
2022/07/11 06:41:01;;;;;;;1.27;0.30;;;19.40;74.50;;;;;;4853020;29;20452;-75
2022/07/11 06:43:29;;;;;;;0.60;0.10;;;19.40;74.50;;;;;;4884405;29;20045;-76
2022/07/11 06:45:54;;;;;;;0.75;0.10;;;19.40;74.50;;;;;;4883517;29;20063;-76
2022/07/11 06:48:21;;;;;;;0.38;0.05;;;19.40;74.50;;;;;;4884800;29;20045;-77
2022/07/11 06:50:47;;;;;;;0.45;0.10;;;19.40;74.50;;;;;;4868682;29;20045;-77
2022/07/11 06:53:12;;;;;;;1.75;0.20;;;19.40;74.70;;;;;;4867865;29;20053;-78
2022/07/11 06:55:38;;;;;;;2.05;0.10;;;19.50;74.90;;;;;;4884428;29;20522;-75
2022/07/11 06:58:05;;;;;;;1.35;0.10;;;19.50;74.80;;;;;;4884208;29;20056;-81
2022/07/11 07:00:31;;;;;;;0.82;0.10;;;19.60;74.80;;;;;;4883438;29;20052;-76
2022/07/11 07:02:57;;;;;;;10.18;1.15;;;19.50;74.70;;;;;;4883638;29;20472;-77
2022/07/11 07:05:24;;;;;;;2.80;0.10;;;19.60;74.90;;;;;;4883623;29;20041;-77
2022/07/11 07:07:51;;;;;;;1.70;0.10;;;19.60;74.90;;;;;;4883958;29;20060;-77
2022/07/11 07:10:17;;;;;;;4.80;0.10;;;19.60;74.90;;;;;;4884659;29;20056;-79
2022/07/11 07:12:44;;;;;;;5.25;0.10;;;19.60;75.00;;;;;;4868230;29;20111;-77
2022/07/11 07:15:13;;;;;;;0.73;0.22;;;19.60;74.80;;;;;;4883848;29;20064;-76
2022/07/11 07:17:39;;;;;;;0.77;0.00;;;19.60;74.80;;;;;;4883229;29;20057;-77
2022/07/11 07:20:08;;;;;;;1.45;0.10;;;19.70;74.80;;;;;;4884434;29;20052;-77
2022/07/11 07:22:34;;;;;;;3.20;0.10;;;19.70;74.80;;;;;;4883170;29;20549;-76
2022/07/11 07:25:00;;;;;;;1.73;0.15;;;19.70;74.80;;;;;;4884378;29;20064;-76
2022/07/11 07:27:26;;;;;;;0.70;0.25;;;19.70;74.80;;;;;;4882834;29;20141;-76
2022/07/11 07:29:53;;;;;;;2.75;0.10;;;19.70;74.70;;;;;;4883495;29;20098;-82
2022/07/11 07:32:19;;;;;;;2.58;0.10;;;19.70;74.80;;;;;;4883213;29;20057;-84
2022/07/11 07:34:44;;;;;;;3.58;0.13;;;19.70;74.70;;;;;;4882721;29;20056;-81
2022/07/11 07:37:10;;;;;;;3.40;0.10;;;19.70;74.60;;;;;;4866784;29;20044;-82
2022/07/11 07:39:36;;;;;;;2.05;0.55;;;19.70;74.50;;;;;;4866787;29;20060;-77
2022/07/11 07:42:02;;;;;;;4.38;0.13;;;19.70;74.60;;;;;;4883097;29;20056;-76
2022/07/11 07:44:27;;;;;;;2.42;0.20;;;19.70;74.70;;;;;;4883628;29;20156;-77
2022/07/11 07:46:53;;;;;;;6.35;0.20;;;19.70;74.90;;;;;;4883529;29;20093;-78
2022/07/11 07:49:19;;;;;;;1.33;0.10;;;19.70;74.90;;;;;;4882583;29;20456;-76
2022/07/11 07:51:44;;;;;;;4.10;0.20;;;19.80;74.80;;;;;;4883168;29;20052;-77
2022/07/11 07:54:10;;;;;;;1.63;0.10;;;19.80;74.70;;;;;;4867166;29;20132;-75
2022/07/11 07:56:36;;;;;;;3.92;0.10;;;19.80;74.70;;;;;;4883366;29;20456;-76
2022/07/11 07:59:02;;;;;;;1.00;0.10;;;19.80;74.50;;;;;;4883112;29;20048;-77
2022/07/11 08:01:36;;;;;;;0.43;0.20;;;19.80;74.20;;;;;;4882605;29;20428;-76
2022/07/11 08:04:07;;;;;;;1.15;0.00;;;19.80;74.10;;;;;;4883509;29;20410;-77
2022/07/11 08:06:34;;;;;;;1.20;0.10;;;19.80;74.00;;;;;;4883290;29;20128;-75
2022/07/11 08:09:01;;;;;;;1.23;0.00;;;19.80;74.10;;;;;;4883120;29;20056;-76
2022/07/11 08:11:27;;;;;;;0.75;0.00;;;19.80;74.10;;;;;;4882554;29;20133;-76
2022/07/11 08:13:53;;;;;;;0.10;0.03;;;19.70;74.20;;;;;;4883224;29;20436;-76
2022/07/11 08:16:20;;;;;;;0.65;0.03;;;19.70;74.30;;;;;;4882413;29;20073;-76
2022/07/11 08:18:46;;;;;;;1.65;0.10;;;19.70;74.50;;;;;;4882969;29;20083;-77
2022/07/11 08:21:12;;;;;;;2.47;0.10;;;19.70;74.40;;;;;;4882994;29;20053;-76
2022/07/11 08:23:37;;;;;;;1.45;0.13;;;19.70;74.40;;;;;;4864710;29;20461;-76
2022/07/11 08:26:04;;;;;;;2.20;0.20;;;19.70;74.30;;;;;;4864411;29;20049;-75
2022/07/11 08:28:30;;;;;;;0.52;0.00;;;19.70;74.10;;;;;;4864090;29;20049;-78
2022/07/11 08:30:56;;;;;;;1.00;0.05;;;19.80;74.10;;;;;;4864598;29;20358;-78
2022/07/11 08:33:22;;;;;;;0.20;0.00;;;19.70;74.20;;;;;;4864023;29;20060;-76
2022/07/11 08:35:48;;;;;;;0.35;0.00;;;19.70;74.20;;;;;;4882556;29;20045;-76
2022/07/11 08:38:13;;;;;;;0.22;0.00;;;19.70;74.10;;;;;;4882229;29;20048;-77
2022/07/11 08:40:42;;;;;;;0.20;0.00;;;19.70;74.10;;;;;;4882741;29;20464;-76
2022/07/11 08:43:15;;;;;;;1.13;0.10;;;19.70;74.10;;;;;;4882575;29;20052;-76
2022/07/11 08:45:41;;;;;;;0.55;0.10;;;19.70;74.10;;;;;;4881760;29;20082;-77
2022/07/11 08:48:11;;;;;;;1.73;0.17;;;19.70;74.30;;;;;;4882782;29;20349;-81
2022/07/11 08:50:37;;;;;;;1.35;0.10;;;19.70;74.40;;;;;;4882602;29;20053;-77
2022/07/11 08:53:04;;;;;;;0.40;0.20;;;19.80;74.30;;;;;;4882182;29;20521;-77
2022/07/11 08:55:31;;;;;;;2.30;0.80;;;19.70;74.30;;;;;;4882599;29;20064;-77
2022/07/11 08:57:56;;;;;;;1.42;0.47;;;19.70;74.50;;;;;;4882242;29;20101;-78
2022/07/11 09:00:23;;;;;;;1.52;0.75;;;19.80;74.50;;;;;;4866619;29;20410;-82
2022/07/11 09:02:49;;;;;;;1.38;0.40;;;19.80;74.50;;;;;;4864583;29;20383;-77
2022/07/11 09:05:15;;;;;;;1.50;1.23;;;19.70;74.40;;;;;;4882049;29;20053;-80
2022/07/11 09:07:46;;;;;;;6.38;0.45;;;19.70;74.90;;;;;;4880967;29;20057;-78
2022/07/11 09:10:13;;;;;;;1.02;0.20;;;19.70;75.20;;;;;;4882918;29;20411;-77
2022/07/11 09:13:03;;;;;;;0.55;0.10;;;19.70;74.80;;;;;;4880997;29;20456;-78
2022/07/11 09:15:33;;;;;;;0.80;0.20;;;19.70;75.30;;;;;;4881304;29;20136;-78
2022/07/11 09:17:59;;;;;;;0.85;0.30;;;19.70;75.90;;;;;;4881702;29;20467;-78
2022/07/11 09:20:25;;;;;;;0.32;0.10;;;19.70;75.40;;;;;;4880869;29;20049;-82
2022/07/11 09:25:43;;;;;;;0.30;0.10;;;19.80;75.40;;;;;;4882254;29;20049;-82
2022/07/11 09:28:09;;;;;;;0.20;0.08;;;19.80;75.50;;;;;;4881703;29;20045;-80
2022/07/11 09:30:39;;;;;;;0.52;0.10;;;19.80;75.10;;;;;;4882154;29;20170;-79
2022/07/11 09:33:09;;;;;;;1.27;0.00;;;19.80;75.00;;;;;;4863576;29;20045;-80
2022/07/11 09:35:45;;;;;;;0.95;0.20;;;19.90;75.10;;;;;;4880498;29;20060;-83
2022/07/11 09:38:15;;;;;;;0.60;0.10;;;19.80;75.10;;;;;;4865685;29;20045;-79
2022/07/11 09:40:46;;;;;;;1.40;0.00;;;19.90;75.00;;;;;;4865122;29;20105;-79
2022/07/11 09:43:13;;;;;;;7.20;0.40;;;19.90;75.30;;;;;;4849239;29;20055;-80
2022/07/11 09:45:41;;;;;;;2.10;0.20;;;19.90;75.00;;;;;;4865478;29;20053;-77
2022/07/11 09:48:13;;;;;;;2.53;0.32;;;19.90;74.90;;;;;;4881749;29;20128;-81
2022/07/11 09:50:42;;;;;;;3.38;0.13;;;19.90;74.80;;;;;;4880740;29;20049;-80
2022/07/11 09:53:14;;;;;;;2.75;0.10;;;19.90;74.60;;;;;;4880927;29;20056;-79
2022/07/11 09:55:44;;;;;;;3.30;0.30;;;19.90;73.90;;;;;;4881574;29;20053;-78
2022/07/11 09:58:11;;;;;;;2.47;0.10;;;19.90;74.30;;;;;;4881280;29;20056;-76
2022/07/11 10:00:38;;;;;;;1.20;0.10;;;19.90;74.40;;;;;;4880960;29;20053;-79
2022/07/11 10:03:05;;;;;;;1.90;0.20;;;19.90;74.50;;;;;;4880359;29;20185;-76
2022/07/11 10:05:32;;;;;;;3.55;0.20;;;19.90;74.50;;;;;;4881221;29;20049;-75
2022/07/11 10:07:59;;;;;;;4.15;0.30;;;19.90;74.50;;;;;;4881920;29;20057;-78
2022/07/11 10:10:26;;;;;;;1.23;0.30;;;19.90;74.50;;;;;;4881649;29;20068;-82
2022/07/11 10:12:53;;;;;;;2.40;0.22;;;20.00;74.60;;;;;;4864317;29;20052;-75
2022/07/11 10:15:42;;;;;;;4.30;0.20;;;20.00;74.80;;;;;;4880663;29;20064;-81
2022/07/11 10:18:32;;;;;;;4.60;0.38;;;20.00;75.40;;;;;;4881276;29;20132;-78
2022/07/11 10:21:04;;;;;;;3.95;0.50;;;20.10;75.20;;;;;;4880314;29;20053;-81
2022/07/11 10:23:50;;;;;;;3.30;0.55;;;20.10;75.40;;;;;;4880570;29;20037;-81
2022/07/11 10:26:29;;;;;;;0.55;0.10;;;20.10;76.30;;;;;;4881049;29;20472;-79
2022/07/11 10:29:09;;;;;;;1.55;0.10;;;20.10;74.90;;;;;;4881160;29;20057;-74
2022/07/11 10:31:36;;;;;;;3.78;0.22;;;20.10;74.40;;;;;;4863893;29;20464;-75
2022/07/11 10:34:18;;;;;;;1.45;0.13;;;20.10;74.30;;;;;;4880903;29;20445;-76
2022/07/11 10:36:45;;;;;;;1.40;0.13;;;20.00;74.00;;;;;;4880055;29;20057;-76
2022/07/11 10:39:26;;;;;;;0.32;0.10;;;20.00;74.00;;;;;;4881291;29;20069;-76
2022/07/11 10:42:03;;;;;;;0.55;0.10;;;19.90;74.10;;;;;;4880726;29;20116;-76
2022/07/11 10:44:51;;;;;;;0.90;0.13;;;19.90;74.20;;;;;;4881011;29;20352;-75
2022/07/11 10:47:35;;;;;;;0.30;0.10;;;19.80;74.20;;;;;;4881037;29;20063;-75
2022/07/11 10:50:21;;;;;;;0.60;0.10;;;19.80;75.10;;;;;;4881149;29;20077;-76
2022/07/11 10:52:49;;;;;;;0.30;0.10;;;19.80;74.60;;;;;;4880394;29;20048;-76
2022/07/11 10:55:37;;;;;;;0.20;0.10;;;19.70;74.50;;;;;;4880655;29;20045;-76
2022/07/11 10:58:22;;;;;;;0.20;0.08;;;19.80;74.40;;;;;;4880928;29;20048;-76
2022/07/11 11:01:01;;;;;;;0.50;0.10;;;19.80;74.30;;;;;;4882506;29;20124;-76
2022/07/11 11:03:27;;;;;;;0.40;0.10;;;19.70;74.30;;;;;;4883840;29;20441;-78
2022/07/11 11:05:54;;;;;;;4.90;0.25;;;19.70;74.50;;;;;;4882838;29;20080;-76
2022/07/11 11:08:32;;;;;;;0.40;0.10;;;19.70;74.80;;;;;;4884058;29;20052;-76
2022/07/11 11:10:59;;;;;;;0.30;0.10;;;19.70;74.70;;;;;;4884398;29;20057;-77
2022/07/11 11:13:25;;;;;;;0.52;0.10;;;19.70;74.90;;;;;;4884808;29;20082;-75
2022/07/11 11:15:54;;;;;;;0.70;0.10;;;19.60;75.10;;;;;;4883771;29;20148;-77
2022/07/11 11:18:23;;;;;;;1.83;0.10;;;19.70;75.30;;;;;;4867309;29;20204;-76
2022/07/11 11:21:07;;;;;;;2.13;0.20;;;19.70;75.30;;;;;;4884199;29;20053;-75
2022/07/11 11:23:39;;;;;;;0.45;0.10;;;19.80;75.10;;;;;;4884199;29;20055;-77
2022/07/11 11:26:13;;;;;;;0.10;0.10;;;19.80;74.80;;;;;;4883476;29;20120;-76
2022/07/11 11:28:54;;;;;;;1.30;0.30;;;19.80;74.60;;;;;;4883072;29;20341;-76
2022/07/11 11:31:21;;;;;;;3.70;0.20;;;19.80;74.80;;;;;;4884100;29;20045;-77
2022/07/11 11:33:47;;;;;;;0.57;0.22;;;19.80;75.00;;;;;;4883627;29;20056;-78
2022/07/11 11:36:16;;;;;;;4.65;0.30;;;19.80;75.10;;;;;;4883886;29;20325;-76
2022/07/11 11:38:42;;;;;;;0.55;0.25;;;19.80;75.20;;;;;;4883374;29;20057;-77
2022/07/11 11:41:09;;;;;;;0.95;0.15;;;19.80;75.20;;;;;;4883220;29;20368;-77
2022/07/11 11:43:37;;;;;;;0.52;0.28;;;19.70;75.20;;;;;;4883054;29;20095;-77
2022/07/11 11:46:03;;;;;;;0.85;0.22;;;19.70;75.30;;;;;;4883316;29;20390;-77
2022/07/11 11:48:30;;;;;;;0.98;0.25;;;19.70;75.50;;;;;;4883053;29;20060;-78
2022/07/11 11:51:04;;;;;;;0.95;0.25;;;19.80;75.90;;;;;;4883411;29;20056;-78
2022/07/11 11:53:37;;;;;;;9.88;0.73;;;19.80;75.80;;;;;;4867024;29;20049;-80
2022/07/11 11:56:13;;;;;;;2.42;0.35;;;19.80;76.10;;;;;;4866541;29;20063;-81
2022/07/11 11:58:43;;;;;;;1.92;0.40;;;19.80;76.20;;;;;;4883283;29;20144;-80
2022/07/11 12:01:12;;;;;;;2.90;0.47;;;19.80;76.50;;;;;;4866933;29;20077;-79
2022/07/11 12:03:57;;;;;;;1.85;0.40;;;19.70;76.40;;;;;;4883247;29;20084;-78
2022/07/11 12:06:34;;;;;;;1.38;0.20;;;19.80;76.40;;;;;;4883247;29;20048;-79
2022/07/11 12:09:03;;;;;;;1.77;0.28;;;19.80;76.20;;;;;;4883437;29;20349;-78
2022/07/11 12:11:30;;;;;;;0.95;0.30;;;19.80;76.10;;;;;;4867054;29;20213;-78
2022/07/11 12:14:07;;;;;;;1.58;0.20;;;19.80;76.00;;;;;;4866303;29;20053;-78
2022/07/11 12:16:41;;;;;;;0.88;0.55;;;19.90;75.90;;;;;;4882579;29;20100;-78
2022/07/11 12:19:13;;;;;;;1.13;0.30;;;19.80;75.70;;;;;;4882845;29;20103;-78
2022/07/11 12:21:47;;;;;;;0.52;0.28;;;19.90;75.80;;;;;;4882995;29;20040;-78
2022/07/11 12:24:20;;;;;;;0.35;0.22;;;19.90;75.70;;;;;;4883172;29;20067;-78
2022/07/11 12:26:47;;;;;;;1.10;0.40;;;19.90;75.70;;;;;;4882991;29;20519;-78
2022/07/11 12:29:22;;;;;;;1.00;0.30;;;19.90;75.60;;;;;;4883022;29;20052;-79
2022/07/11 12:31:59;;;;;;;8.20;0.57;;;19.90;75.50;;;;;;4865865;29;20048;-77
2022/07/11 12:34:34;;;;;;;3.28;0.45;;;19.90;75.60;;;;;;4882742;29;20049;-76
2022/07/11 12:37:06;;;;;;;10.45;1.20;;;19.90;75.60;;;;;;4882648;29;20118;-78
2022/07/11 12:39:33;;;;;;;8.13;1.00;;;20.00;75.60;;;;;;4882789;29;20340;-83
2022/07/11 12:42:00;;;;;;;7.03;1.35;;;19.90;75.60;;;;;;4881446;29;20481;-82
2022/07/11 12:47:24;;;;;;;5.28;0.65;;;19.90;75.70;;;;;;4882547;29;20092;-77
2022/07/11 12:49:50;;;;;;;3.80;0.70;;;19.90;75.80;;;;;;4882469;29;20049;-75
2022/07/11 12:52:17;;;;;;;3.90;0.60;;;19.90;75.90;;;;;;4881481;29;20479;-75
2022/07/11 12:54:43;;;;;;;4.90;1.02;;;20.00;75.90;;;;;;4881791;29;20136;-77
2022/07/11 12:57:10;;;;;;;4.07;0.77;;;20.00;75.90;;;;;;4882072;29;20072;-78
2022/07/11 12:59:39;;;;;;;3.38;0.77;;;20.00;75.80;;;;;;4866088;29;20080;-78
2022/07/11 13:02:07;;;;;;;3.45;0.70;;;20.00;75.70;;;;;;4882318;29;20049;-76
2022/07/11 13:04:40;;;;;;;5.15;0.90;;;20.00;75.70;;;;;;4881578;29;20125;-76
2022/07/11 13:10:17;;;;;;;7.18;1.33;;;20.10;75.70;;;;;;4881333;29;20061;-79
2022/07/11 13:12:45;;;;;;;6.63;1.15;;;20.10;75.70;;;;;;4881146;29;20224;-80
2022/07/11 16:04:19;;;;;;;4.57;1.08;;;20.40;74.20;;;;;;5507180;24;20065;-75
2022/07/11 16:06:45;;;;;;;3.25;0.80;;;20.40;74.10;;;;;;4864026;29;20050;-74
2022/07/11 16:09:10;;;;;;;5.30;1.08;;;20.40;74.10;;;;;;4863748;29;20452;-75
2022/07/11 16:11:36;;;;;;;6.18;1.10;;;20.40;74.10;;;;;;4864327;29;20050;-74
2022/07/11 16:14:02;;;;;;;4.20;0.80;;;20.40;74.00;;;;;;4864843;29;20056;-75
2022/07/11 19:38:43;;;;;;;1.73;0.73;;;20.40;73.20;;;;;;5672409;24;20395;-72
2022/07/11 19:41:09;;;;;;;3.30;0.70;;;20.40;73.00;;;;;;4865482;29;20057;-73
2022/07/11 19:43:36;;;;;;;3.13;1.00;;;20.40;73.00;;;;;;4864981;29;20080;-74
2022/07/11 19:46:02;;;;;;;3.00;0.93;;;20.40;72.80;;;;;;4863587;29;20086;-72
2022/07/11 19:48:28;;;;;;;2.75;0.85;;;20.30;72.90;;;;;;4865106;29;20057;-74
2022/07/11 19:50:53;;;;;;;2.08;0.70;;;20.20;72.90;;;;;;4848691;29;20453;-72
2022/07/11 19:53:19;;;;;;;2.33;0.82;;;20.10;73.10;;;;;;4864768;29;20069;-73
2022/07/11 19:58:29;;;;;;;1.30;0.80;;;20.00;73.30;;;;;;4865060;29;20492;-73
2022/07/11 20:00:55;;;;;;;1.55;0.75;;;19.90;73.20;;;;;;4864642;29;20094;-74
2022/07/11 20:03:20;;;;;;;1.40;0.80;;;19.90;73.30;;;;;;4864355;29;20471;-73
2022/07/11 20:05:46;;;;;;;1.13;0.63;;;19.80;73.20;;;;;;4864825;29;20053;-74
2022/07/11 20:08:13;;;;;;;0.93;0.70;;;19.80;73.30;;;;;;4864191;29;20050;-73
2022/07/11 20:10:39;;;;;;;2.38;0.70;;;19.70;73.30;;;;;;4863784;29;20057;-73
2022/07/11 20:13:04;;;;;;;2.60;0.80;;;19.60;73.50;;;;;;4864978;29;20045;-73
2022/07/11 20:15:30;;;;;;;2.20;1.15;;;19.60;73.60;;;;;;4865164;29;20052;-72
2022/07/11 20:17:56;;;;;;;1.58;0.90;;;19.60;73.70;;;;;;4848308;29;20088;-75
2022/07/11 20:20:22;;;;;;;1.70;0.43;;;19.60;73.90;;;;;;4863514;29;20042;-75
2022/07/11 20:22:47;;;;;;;1.80;0.90;;;19.60;74.00;;;;;;4864500;29;20159;-75
2022/07/11 20:25:13;;;;;;;1.63;0.90;;;19.50;74.00;;;;;;4864372;29;20053;-72
2022/07/11 20:27:42;;;;;;;1.70;0.82;;;19.50;74.00;;;;;;4864182;29;20057;-73
2022/07/11 20:30:08;;;;;;;1.35;0.80;;;19.50;74.00;;;;;;4864603;29;20350;-75
2022/07/11 20:32:35;;;;;;;1.63;0.80;;;19.40;74.10;;;;;;4848003;29;20057;-74
2022/07/11 20:35:02;;;;;;;1.80;0.70;;;19.40;74.20;;;;;;4863417;29;20045;-74
2022/07/11 20:37:28;;;;;;;1.75;0.80;;;19.40;74.30;;;;;;4864068;29;20059;-80
2022/07/11 20:39:54;;;;;;;1.70;0.80;;;19.40;74.50;;;;;;4863562;29;20065;-76
2022/07/11 20:42:20;;;;;;;2.17;0.75;;;19.40;74.60;;;;;;4864048;29;20140;-74
2022/07/11 20:44:47;;;;;;;1.52;0.88;;;19.40;74.60;;;;;;4847512;29;20080;-74
2022/07/11 20:47:15;;;;;;;2.88;1.05;;;19.40;74.60;;;;;;4863931;29;20042;-74
2022/07/11 20:49:40;;;;;;;1.90;1.00;;;19.40;74.90;;;;;;4864220;29;20065;-76
2022/07/11 20:52:06;;;;;;;2.08;1.10;;;19.40;74.80;;;;;;4863779;29;20054;-78
